sensor_id;sensor_type;location;lat;lon;timestamp;temperature;humidity
29803;DHT22;16702;50.898;4.662;2023-04-03T00:00:20;6.40;99.90
29803;DHT22;16702;50.898;4.662;2023-04-03T00:02:51;6.30;99.90
29803;DHT22;16702;50.898;4.662;2023-04-03T00:05:21;6.30;99.90
29803;DHT22;16702;50.898;4.662;2023-04-03T00:07:55;6.40;99.90
29803;DHT22;16702;50.898;4.662;2023-04-03T00:10:25;6.30;99.90
29803;DHT22;16702;50.898;4.662;2023-04-03T00:12:56;6.20;99.90
29803;DHT22;16702;50.898;4.662;2023-04-03T00:15:26;6.20;99.90
29803;DHT22;16702;50.898;4.662;2023-04-03T00:17:57;6.20;99.90
29803;DHT22;16702;50.898;4.662;2023-04-03T00:20:27;6.20;99.90
29803;DHT22;16702;50.898;4.662;2023-04-03T00:23:01;6.20;99.90
29803;DHT22;16702;50.898;4.662;2023-04-03T00:25:32;6.10;99.90
29803;DHT22;16702;50.898;4.662;2023-04-03T00:28:03;6.10;99.90
29803;DHT22;16702;50.898;4.662;2023-04-03T00:30:34;6.10;99.90
29803;DHT22;16702;50.898;4.662;2023-04-03T00:33:05;6.10;99.90
29803;DHT22;16702;50.898;4.662;2023-04-03T00:35:35;6.10;99.90
29803;DHT22;16702;50.898;4.662;2023-04-03T00:38:09;6.10;99.90
29803;DHT22;16702;50.898;4.662;2023-04-03T00:40:43;6.10;99.90
29803;DHT22;16702;50.898;4.662;2023-04-03T00:43:16;6.00;99.90
29803;DHT22;16702;50.898;4.662;2023-04-03T00:45:48;6.10;99.90
29803;DHT22;16702;50.898;4.662;2023-04-03T00:48:21;6.00;99.90
29803;DHT22;16702;50.898;4.662;2023-04-03T00:50:53;6.10;99.90
29803;DHT22;16702;50.898;4.662;2023-04-03T00:53:31;6.00;99.90
29803;DHT22;16702;50.898;4.662;2023-04-03T00:56:01;6.00;99.90
29803;DHT22;16702;50.898;4.662;2023-04-03T00:58:39;6.00;99.90
29803;DHT22;16702;50.898;4.662;2023-04-03T01:01:12;6.00;99.90
29803;DHT22;16702;50.898;4.662;2023-04-03T01:03:43;5.90;99.90
29803;DHT22;16702;50.898;4.662;2023-04-03T01:06:17;6.00;99.90
29803;DHT22;16702;50.898;4.662;2023-04-03T01:08:53;5.90;99.90
29803;DHT22;16702;50.898;4.662;2023-04-03T01:11:24;5.90;99.90
29803;DHT22;16702;50.898;4.662;2023-04-03T01:13:54;6.00;99.90
29803;DHT22;16702;50.898;4.662;2023-04-03T01:16:25;5.90;99.90
29803;DHT22;16702;50.898;4.662;2023-04-03T01:18:59;5.80;99.90
29803;DHT22;16702;50.898;4.662;2023-04-03T01:21:46;5.80;99.90
29803;DHT22;16702;50.898;4.662;2023-04-03T01:24:37;5.80;99.90
29803;DHT22;16702;50.898;4.662;2023-04-03T01:27:10;5.70;99.90
29803;DHT22;16702;50.898;4.662;2023-04-03T01:29:41;5.70;99.90
29803;DHT22;16702;50.898;4.662;2023-04-03T01:32:16;5.80;99.90
29803;DHT22;16702;50.898;4.662;2023-04-03T01:34:46;5.70;99.90
29803;DHT22;16702;50.898;4.662;2023-04-03T01:37:17;5.70;99.90
29803;DHT22;16702;50.898;4.662;2023-04-03T01:39:47;5.70;99.90
29803;DHT22;16702;50.898;4.662;2023-04-03T01:42:18;5.70;99.90
29803;DHT22;16702;50.898;4.662;2023-04-03T01:44:48;5.60;99.90
29803;DHT22;16702;50.898;4.662;2023-04-03T01:47:22;5.70;99.90
29803;DHT22;16702;50.898;4.662;2023-04-03T01:49:52;5.70;99.90
29803;DHT22;16702;50.898;4.662;2023-04-03T01:52:23;5.60;99.90
29803;DHT22;16702;50.898;4.662;2023-04-03T01:54:53;5.70;99.90
29803;DHT22;16702;50.898;4.662;2023-04-03T01:57:24;5.60;99.90
29803;DHT22;16702;50.898;4.662;2023-04-03T01:59:55;5.60;99.90
29803;DHT22;16702;50.898;4.662;2023-04-03T02:02:28;5.50;99.90
29803;DHT22;16702;50.898;4.662;2023-04-03T02:04:58;5.50;99.90
29803;DHT22;16702;50.898;4.662;2023-04-03T02:07:29;5.50;99.90
29803;DHT22;16702;50.898;4.662;2023-04-03T02:09:59;5.50;99.90
29803;DHT22;16702;50.898;4.662;2023-04-03T02:12:30;5.50;99.90
29803;DHT22;16702;50.898;4.662;2023-04-03T02:15:00;5.50;99.90
29803;DHT22;16702;50.898;4.662;2023-04-03T02:17:34;5.50;99.90
29803;DHT22;16702;50.898;4.662;2023-04-03T02:20:06;5.40;99.90
29803;DHT22;16702;50.898;4.662;2023-04-03T02:22:37;5.40;99.90
29803;DHT22;16702;50.898;4.662;2023-04-03T02:25:08;5.40;99.90
29803;DHT22;16702;50.898;4.662;2023-04-03T02:27:40;5.40;99.90
29803;DHT22;16702;50.898;4.662;2023-04-03T02:30:11;5.50;99.90
29803;DHT22;16702;50.898;4.662;2023-04-03T02:32:45;5.40;99.90
29803;DHT22;16702;50.898;4.662;2023-04-03T02:35:16;5.40;99.90
29803;DHT22;16702;50.898;4.662;2023-04-03T02:37:47;5.30;99.90
29803;DHT22;16702;50.898;4.662;2023-04-03T02:40:19;5.30;99.90
29803;DHT22;16702;50.898;4.662;2023-04-03T02:42:50;5.30;99.90
29803;DHT22;16702;50.898;4.662;2023-04-03T02:45:23;5.30;99.90
29803;DHT22;16702;50.898;4.662;2023-04-03T02:47:56;5.30;99.90
29803;DHT22;16702;50.898;4.662;2023-04-03T02:50:26;5.30;99.90
29803;DHT22;16702;50.898;4.662;2023-04-03T02:52:57;5.30;99.90
29803;DHT22;16702;50.898;4.662;2023-04-03T02:55:27;5.30;99.90
29803;DHT22;16702;50.898;4.662;2023-04-03T02:57:58;5.30;99.90
29803;DHT22;16702;50.898;4.662;2023-04-03T03:00:28;5.20;99.90
29803;DHT22;16702;50.898;4.662;2023-04-03T03:03:01;5.20;99.90
29803;DHT22;16702;50.898;4.662;2023-04-03T03:05:32;5.20;99.90
29803;DHT22;16702;50.898;4.662;2023-04-03T03:08:03;5.30;99.90
29803;DHT22;16702;50.898;4.662;2023-04-03T03:10:33;5.20;99.90
29803;DHT22;16702;50.898;4.662;2023-04-03T03:13:04;5.20;99.90
29803;DHT22;16702;50.898;4.662;2023-04-03T03:15:35;5.10;99.90
29803;DHT22;16702;50.898;4.662;2023-04-03T03:18:08;5.20;99.90
29803;DHT22;16702;50.898;4.662;2023-04-03T03:20:38;5.10;99.90
29803;DHT22;16702;50.898;4.662;2023-04-03T03:23:09;5.10;99.90
29803;DHT22;16702;50.898;4.662;2023-04-03T03:25:40;5.10;99.90
29803;DHT22;16702;50.898;4.662;2023-04-03T03:28:10;5.10;99.90
29803;DHT22;16702;50.898;4.662;2023-04-03T03:30:42;5.10;99.90
29803;DHT22;16702;50.898;4.662;2023-04-03T03:33:16;5.20;99.90
29803;DHT22;16702;50.898;4.662;2023-04-03T03:35:47;5.00;99.90
29803;DHT22;16702;50.898;4.662;2023-04-03T03:38:17;5.00;99.90
29803;DHT22;16702;50.898;4.662;2023-04-03T03:40:48;5.00;99.90
29803;DHT22;16702;50.898;4.662;2023-04-03T03:43:20;5.00;99.90
29803;DHT22;16702;50.898;4.662;2023-04-03T03:45:53;5.10;99.90
29803;DHT22;16702;50.898;4.662;2023-04-03T03:48:28;5.00;99.90
29803;DHT22;16702;50.898;4.662;2023-04-03T03:50:58;5.00;99.90
29803;DHT22;16702;50.898;4.662;2023-04-03T03:53:33;5.10;99.90
29803;DHT22;16702;50.898;4.662;2023-04-03T03:56:07;4.90;99.90
29803;DHT22;16702;50.898;4.662;2023-04-03T03:58:39;4.90;99.90
29803;DHT22;16702;50.898;4.662;2023-04-03T04:01:10;5.00;99.90
29803;DHT22;16702;50.898;4.662;2023-04-03T04:03:48;5.00;99.90
29803;DHT22;16702;50.898;4.662;2023-04-03T04:06:22;4.80;99.90
29803;DHT22;16702;50.898;4.662;2023-04-03T04:08:57;4.90;99.90
29803;DHT22;16702;50.898;4.662;2023-04-03T04:11:28;4.80;99.90
29803;DHT22;16702;50.898;4.662;2023-04-03T04:14:00;4.80;99.90
29803;DHT22;16702;50.898;4.662;2023-04-03T04:16:31;4.80;99.90
29803;DHT22;16702;50.898;4.662;2023-04-03T04:19:10;4.90;99.90
29803;DHT22;16702;50.898;4.662;2023-04-03T04:21:42;4.80;99.90
29803;DHT22;16702;50.898;4.662;2023-04-03T04:24:13;4.80;99.90
29803;DHT22;16702;50.898;4.662;2023-04-03T04:26:44;4.80;99.90
29803;DHT22;16702;50.898;4.662;2023-04-03T04:29:16;4.90;99.90
29803;DHT22;16702;50.898;4.662;2023-04-03T04:31:49;4.80;99.90
29803;DHT22;16702;50.898;4.662;2023-04-03T04:34:24;4.80;99.90
29803;DHT22;16702;50.898;4.662;2023-04-03T04:36:55;4.80;99.90
29803;DHT22;16702;50.898;4.662;2023-04-03T04:39:26;4.70;99.90
29803;DHT22;16702;50.898;4.662;2023-04-03T04:41:58;4.80;99.90
29803;DHT22;16702;50.898;4.662;2023-04-03T04:44:31;4.70;99.90
29803;DHT22;16702;50.898;4.662;2023-04-03T04:47:01;4.60;99.90
29803;DHT22;16702;50.898;4.662;2023-04-03T04:49:34;4.80;99.90
29803;DHT22;16702;50.898;4.662;2023-04-03T04:52:05;4.60;99.90
29803;DHT22;16702;50.898;4.662;2023-04-03T04:54:38;4.70;99.90
29803;DHT22;16702;50.898;4.662;2023-04-03T04:57:09;4.70;99.90
29803;DHT22;16702;50.898;4.662;2023-04-03T04:59:41;4.70;99.90
29803;DHT22;16702;50.898;4.662;2023-04-03T05:02:11;4.60;99.90
29803;DHT22;16702;50.898;4.662;2023-04-03T05:04:46;4.60;99.90
29803;DHT22;16702;50.898;4.662;2023-04-03T05:07:21;4.60;99.90
29803;DHT22;16702;50.898;4.662;2023-04-03T05:09:52;4.50;99.90
29803;DHT22;16702;50.898;4.662;2023-04-03T05:12:23;4.60;99.90
29803;DHT22;16702;50.898;4.662;2023-04-03T05:14:58;4.50;99.90
29803;DHT22;16702;50.898;4.662;2023-04-03T05:17:30;4.60;99.90
29803;DHT22;16702;50.898;4.662;2023-04-03T05:20:05;4.50;99.90
29803;DHT22;16702;50.898;4.662;2023-04-03T05:22:37;4.50;99.90
29803;DHT22;16702;50.898;4.662;2023-04-03T05:25:09;4.60;99.90
29803;DHT22;16702;50.898;4.662;2023-04-03T05:27:43;4.50;99.90
29803;DHT22;16702;50.898;4.662;2023-04-03T05:30:14;4.50;99.90
29803;DHT22;16702;50.898;4.662;2023-04-03T05:32:46;4.40;99.90
29803;DHT22;16702;50.898;4.662;2023-04-03T05:35:32;4.50;99.90
29803;DHT22;16702;50.898;4.662;2023-04-03T05:38:03;4.50;99.90
29803;DHT22;16702;50.898;4.662;2023-04-03T05:40:33;4.40;99.90
29803;DHT22;16702;50.898;4.662;2023-04-03T05:43:06;4.50;99.90
29803;DHT22;16702;50.898;4.662;2023-04-03T05:45:39;4.40;99.90
29803;DHT22;16702;50.898;4.662;2023-04-03T05:48:13;4.40;99.90
29803;DHT22;16702;50.898;4.662;2023-04-03T05:50:47;4.40;99.90
29803;DHT22;16702;50.898;4.662;2023-04-03T05:53:27;4.50;99.90
29803;DHT22;16702;50.898;4.662;2023-04-03T05:56:02;4.40;99.90
29803;DHT22;16702;50.898;4.662;2023-04-03T05:58:38;4.40;99.90
29803;DHT22;16702;50.898;4.662;2023-04-03T06:01:08;4.60;99.90
29803;DHT22;16702;50.898;4.662;2023-04-03T06:03:39;4.40;99.90
29803;DHT22;16702;50.898;4.662;2023-04-03T06:06:16;4.40;99.90
29803;DHT22;16702;50.898;4.662;2023-04-03T06:08:47;4.50;99.90
29803;DHT22;16702;50.898;4.662;2023-04-03T06:11:17;4.50;99.90
29803;DHT22;16702;50.898;4.662;2023-04-03T06:13:48;4.50;99.90
29803;DHT22;16702;50.898;4.662;2023-04-03T06:16:19;4.50;99.90
29803;DHT22;16702;50.898;4.662;2023-04-03T06:18:49;4.50;99.90
29803;DHT22;16702;50.898;4.662;2023-04-03T06:21:22;4.50;99.90
29803;DHT22;16702;50.898;4.662;2023-04-03T06:23:53;4.50;99.90
29803;DHT22;16702;50.898;4.662;2023-04-03T06:26:24;4.60;99.90
29803;DHT22;16702;50.898;4.662;2023-04-03T06:28:54;4.60;99.90
29803;DHT22;16702;50.898;4.662;2023-04-03T06:31:25;4.60;99.90
29803;DHT22;16702;50.898;4.662;2023-04-03T06:33:55;4.80;99.90
29803;DHT22;16702;50.898;4.662;2023-04-03T06:36:29;4.70;99.90
29803;DHT22;16702;50.898;4.662;2023-04-03T06:38:59;4.70;99.90
29803;DHT22;16702;50.898;4.662;2023-04-03T06:41:30;4.70;99.90
29803;DHT22;16702;50.898;4.662;2023-04-03T06:44:03;4.70;99.90
29803;DHT22;16702;50.898;4.662;2023-04-03T06:46:33;4.80;99.90
29803;DHT22;16702;50.898;4.662;2023-04-03T06:49:04;4.80;99.90
29803;DHT22;16702;50.898;4.662;2023-04-03T06:51:37;4.90;99.90
29803;DHT22;16702;50.898;4.662;2023-04-03T06:54:08;4.80;99.90
29803;DHT22;16702;50.898;4.662;2023-04-03T06:56:38;4.90;99.90
29803;DHT22;16702;50.898;4.662;2023-04-03T06:59:10;4.90;99.90
29803;DHT22;16702;50.898;4.662;2023-04-03T07:01:41;4.90;99.90
29803;DHT22;16702;50.898;4.662;2023-04-03T07:04:12;4.80;99.90
29803;DHT22;16702;50.898;4.662;2023-04-03T07:06:45;4.80;99.90
29803;DHT22;16702;50.898;4.662;2023-04-03T07:09:15;4.80;99.90
29803;DHT22;16702;50.898;4.662;2023-04-03T07:11:46;4.90;99.90
29803;DHT22;16702;50.898;4.662;2023-04-03T07:14:16;4.80;99.90
29803;DHT22;16702;50.898;4.662;2023-04-03T07:16:47;4.70;99.90
29803;DHT22;16702;50.898;4.662;2023-04-03T07:19:17;4.90;99.90
29803;DHT22;16702;50.898;4.662;2023-04-03T07:21:51;5.00;99.90
29803;DHT22;16702;50.898;4.662;2023-04-03T07:24:21;5.00;99.90
29803;DHT22;16702;50.898;4.662;2023-04-03T07:26:52;5.00;99.90
29803;DHT22;16702;50.898;4.662;2023-04-03T07:29:23;5.10;99.90
29803;DHT22;16702;50.898;4.662;2023-04-03T07:31:53;5.20;99.90
29803;DHT22;16702;50.898;4.662;2023-04-03T07:34:24;5.10;99.90
29803;DHT22;16702;50.898;4.662;2023-04-03T07:36:57;5.10;99.90
29803;DHT22;16702;50.898;4.662;2023-04-03T07:39:28;5.30;99.90
29803;DHT22;16702;50.898;4.662;2023-04-03T07:41:58;5.30;99.90
29803;DHT22;16702;50.898;4.662;2023-04-03T07:44:29;5.30;99.90
29803;DHT22;16702;50.898;4.662;2023-04-03T07:47:00;5.20;99.90
29803;DHT22;16702;50.898;4.662;2023-04-03T07:49:30;5.30;99.90
29803;DHT22;16702;50.898;4.662;2023-04-03T07:52:06;5.40;99.90
29803;DHT22;16702;50.898;4.662;2023-04-03T07:54:37;5.40;99.90
29803;DHT22;16702;50.898;4.662;2023-04-03T07:57:07;5.40;99.90
29803;DHT22;16702;50.898;4.662;2023-04-03T07:59:39;5.50;99.90
29803;DHT22;16702;50.898;4.662;2023-04-03T08:02:10;5.40;99.90
29803;DHT22;16702;50.898;4.662;2023-04-03T08:04:40;5.50;99.90
29803;DHT22;16702;50.898;4.662;2023-04-03T08:07:14;5.60;99.90
29803;DHT22;16702;50.898;4.662;2023-04-03T08:09:44;5.70;99.90
29803;DHT22;16702;50.898;4.662;2023-04-03T08:12:15;5.60;99.90
29803;DHT22;16702;50.898;4.662;2023-04-03T08:14:45;5.60;99.90
29803;DHT22;16702;50.898;4.662;2023-04-03T08:17:16;5.70;99.90
29803;DHT22;16702;50.898;4.662;2023-04-03T08:19:46;5.70;99.90
29803;DHT22;16702;50.898;4.662;2023-04-03T08:22:19;5.80;99.90
29803;DHT22;16702;50.898;4.662;2023-04-03T08:24:50;5.80;99.90
29803;DHT22;16702;50.898;4.662;2023-04-03T08:27:25;5.90;99.90
29803;DHT22;16702;50.898;4.662;2023-04-03T08:29:57;5.90;99.90
29803;DHT22;16702;50.898;4.662;2023-04-03T08:32:27;6.00;99.90
29803;DHT22;16702;50.898;4.662;2023-04-03T08:34:58;6.10;99.90
29803;DHT22;16702;50.898;4.662;2023-04-03T08:37:31;6.10;99.90
29803;DHT22;16702;50.898;4.662;2023-04-03T08:40:02;6.20;99.90
29803;DHT22;16702;50.898;4.662;2023-04-03T08:42:42;6.30;99.90
29803;DHT22;16702;50.898;4.662;2023-04-03T08:45:19;6.30;99.90
29803;DHT22;16702;50.898;4.662;2023-04-03T08:47:55;6.30;99.90
29803;DHT22;16702;50.898;4.662;2023-04-03T08:50:31;6.40;99.90
29803;DHT22;16702;50.898;4.662;2023-04-03T08:53:12;6.50;99.90
29803;DHT22;16702;50.898;4.662;2023-04-03T08:55:45;6.50;99.90
29803;DHT22;16702;50.898;4.662;2023-04-03T08:58:19;6.50;99.90
29803;DHT22;16702;50.898;4.662;2023-04-03T09:00:51;6.70;99.90
29803;DHT22;16702;50.898;4.662;2023-04-03T09:03:24;6.70;99.90
29803;DHT22;16702;50.898;4.662;2023-04-03T09:05:59;6.70;99.90
29803;DHT22;16702;50.898;4.662;2023-04-03T09:08:35;6.70;99.90
29803;DHT22;16702;50.898;4.662;2023-04-03T09:11:14;6.90;99.90
29803;DHT22;16702;50.898;4.662;2023-04-03T09:13:53;7.00;99.90
29803;DHT22;16702;50.898;4.662;2023-04-03T09:16:35;7.10;99.90
29803;DHT22;16702;50.898;4.662;2023-04-03T09:19:15;7.20;99.90
29803;DHT22;16702;50.898;4.662;2023-04-03T09:21:48;7.20;99.90
29803;DHT22;16702;50.898;4.662;2023-04-03T09:24:23;7.10;99.90
29803;DHT22;16702;50.898;4.662;2023-04-03T09:26:57;7.20;99.90
29803;DHT22;16702;50.898;4.662;2023-04-03T09:29:30;7.30;99.90
29803;DHT22;16702;50.898;4.662;2023-04-03T09:32:02;7.20;99.90
29803;DHT22;16702;50.898;4.662;2023-04-03T09:34:41;7.30;99.90
29803;DHT22;16702;50.898;4.662;2023-04-03T09:37:36;7.30;99.90
29803;DHT22;16702;50.898;4.662;2023-04-03T09:40:30;7.50;99.90
29803;DHT22;16702;50.898;4.662;2023-04-03T09:43:26;7.60;99.90
29803;DHT22;16702;50.898;4.662;2023-04-03T09:46:16;7.70;99.90
29803;DHT22;16702;50.898;4.662;2023-04-03T09:48:51;7.70;99.90
29803;DHT22;16702;50.898;4.662;2023-04-03T09:51:34;7.90;99.90
29803;DHT22;16702;50.898;4.662;2023-04-03T09:57:14;8.10;99.90
29803;DHT22;16702;50.898;4.662;2023-04-03T09:59:47;8.00;99.90
29803;DHT22;16702;50.898;4.662;2023-04-03T10:02:34;8.10;99.90
29803;DHT22;16702;50.898;4.662;2023-04-03T10:05:27;8.30;99.90
29803;DHT22;16702;50.898;4.662;2023-04-03T10:08:09;8.30;99.90
29803;DHT22;16702;50.898;4.662;2023-04-03T10:10:42;8.20;99.90
29803;DHT22;16702;50.898;4.662;2023-04-03T10:13:17;8.40;99.90
29803;DHT22;16702;50.898;4.662;2023-04-03T10:15:51;8.50;99.90
29803;DHT22;16702;50.898;4.662;2023-04-03T10:18:32;8.50;99.90
29803;DHT22;16702;50.898;4.662;2023-04-03T10:21:10;8.50;99.90
29803;DHT22;16702;50.898;4.662;2023-04-03T10:23:59;8.50;99.90
29803;DHT22;16702;50.898;4.662;2023-04-03T10:26:41;8.70;99.90
29803;DHT22;16702;50.898;4.662;2023-04-03T10:29:27;8.60;99.90
29803;DHT22;16702;50.898;4.662;2023-04-03T10:32:15;8.60;99.90
29803;DHT22;16702;50.898;4.662;2023-04-03T10:34:52;8.70;99.90
29803;DHT22;16702;50.898;4.662;2023-04-03T10:37:35;8.90;99.90
29803;DHT22;16702;50.898;4.662;2023-04-03T10:40:22;9.10;99.90
29803;DHT22;16702;50.898;4.662;2023-04-03T10:42:58;9.10;99.90
29803;DHT22;16702;50.898;4.662;2023-04-03T10:45:47;9.10;99.90
29803;DHT22;16702;50.898;4.662;2023-04-03T10:48:31;9.40;99.90
29803;DHT22;16702;50.898;4.662;2023-04-03T10:51:13;9.40;99.90
29803;DHT22;16702;50.898;4.662;2023-04-03T10:53:52;9.30;99.90
29803;DHT22;16702;50.898;4.662;2023-04-03T10:56:31;9.30;99.90
29803;DHT22;16702;50.898;4.662;2023-04-03T10:59:12;9.40;99.90
29803;DHT22;16702;50.898;4.662;2023-04-03T11:01:51;9.50;99.90
29803;DHT22;16702;50.898;4.662;2023-04-03T11:04:23;9.50;99.90
29803;DHT22;16702;50.898;4.662;2023-04-03T11:06:59;9.50;99.90
29803;DHT22;16702;50.898;4.662;2023-04-03T11:09:34;9.70;99.90
29803;DHT22;16702;50.898;4.662;2023-04-03T11:12:11;9.80;99.90
29803;DHT22;16702;50.898;4.662;2023-04-03T11:14:43;9.80;99.90
29803;DHT22;16702;50.898;4.662;2023-04-03T11:17:22;9.80;99.90
29803;DHT22;16702;50.898;4.662;2023-04-03T11:20:03;9.80;99.90
29803;DHT22;16702;50.898;4.662;2023-04-03T11:22:39;9.90;99.90
29803;DHT22;16702;50.898;4.662;2023-04-03T11:25:18;10.00;99.90
29803;DHT22;16702;50.898;4.662;2023-04-03T11:27:54;10.10;99.90
29803;DHT22;16702;50.898;4.662;2023-04-03T11:30:28;10.20;99.90
29803;DHT22;16702;50.898;4.662;2023-04-03T11:33:24;10.10;99.90
29803;DHT22;16702;50.898;4.662;2023-04-03T11:36:02;10.20;99.90
29803;DHT22;16702;50.898;4.662;2023-04-03T11:38:54;10.20;99.90
29803;DHT22;16702;50.898;4.662;2023-04-03T11:41:27;10.30;99.90
29803;DHT22;16702;50.898;4.662;2023-04-03T11:44:00;10.30;99.90
29803;DHT22;16702;50.898;4.662;2023-04-03T11:46:49;10.20;99.90
29803;DHT22;16702;50.898;4.662;2023-04-03T11:55:56;10.60;99.90
29803;DHT22;16702;50.898;4.662;2023-04-03T11:58:29;10.60;99.90
29803;DHT22;16702;50.898;4.662;2023-04-03T12:01:05;10.70;99.90
29803;DHT22;16702;50.898;4.662;2023-04-03T12:09:57;11.00;99.90
29803;DHT22;16702;50.898;4.662;2023-04-03T12:12:39;10.80;99.90
29803;DHT22;16702;50.898;4.662;2023-04-03T12:21:16;11.00;99.90
29803;DHT22;16702;50.898;4.662;2023-04-03T12:24:04;11.20;99.90
29803;DHT22;16702;50.898;4.662;2023-04-03T12:26:40;11.40;99.90
29803;DHT22;16702;50.898;4.662;2023-04-03T12:29:24;11.40;99.90
29803;DHT22;16702;50.898;4.662;2023-04-03T12:32:09;11.30;99.90
29803;DHT22;16702;50.898;4.662;2023-04-03T12:34:54;11.50;99.90
29803;DHT22;16702;50.898;4.662;2023-04-03T12:40:26;11.60;99.90
29803;DHT22;16702;50.898;4.662;2023-04-03T12:43:20;11.70;99.90
29803;DHT22;16702;50.898;4.662;2023-04-03T12:46:03;11.50;99.90
29803;DHT22;16702;50.898;4.662;2023-04-03T12:48:39;11.70;99.90
29803;DHT22;16702;50.898;4.662;2023-04-03T12:51:19;11.80;99.90
29803;DHT22;16702;50.898;4.662;2023-04-03T12:53:54;12.00;99.90
29803;DHT22;16702;50.898;4.662;2023-04-03T12:56:29;11.90;99.90
29803;DHT22;16702;50.898;4.662;2023-04-03T12:59:14;11.90;99.90
29803;DHT22;16702;50.898;4.662;2023-04-03T13:01:56;11.90;99.70
29803;DHT22;16702;50.898;4.662;2023-04-03T13:04:29;11.90;98.70
29803;DHT22;16702;50.898;4.662;2023-04-03T13:07:00;12.00;99.90
29803;DHT22;16702;50.898;4.662;2023-04-03T13:09:31;12.20;99.90
29803;DHT22;16702;50.898;4.662;2023-04-03T13:12:09;12.30;99.90
29803;DHT22;16702;50.898;4.662;2023-04-03T13:14:49;12.30;99.90
29803;DHT22;16702;50.898;4.662;2023-04-03T13:17:25;12.40;99.90
29803;DHT22;16702;50.898;4.662;2023-04-03T13:20:10;12.30;99.90
29803;DHT22;16702;50.898;4.662;2023-04-03T13:22:48;12.50;99.90
29803;DHT22;16702;50.898;4.662;2023-04-03T13:25:21;12.30;99.90
29803;DHT22;16702;50.898;4.662;2023-04-03T13:27:52;12.50;99.90
29803;DHT22;16702;50.898;4.662;2023-04-03T13:30:39;12.60;99.60
29803;DHT22;16702;50.898;4.662;2023-04-03T13:33:24;12.60;99.90
29803;DHT22;16702;50.898;4.662;2023-04-03T13:35:57;12.40;99.90
29803;DHT22;16702;50.898;4.662;2023-04-03T13:38:30;12.40;98.50
29803;DHT22;16702;50.898;4.662;2023-04-03T13:41:20;12.30;98.80
29803;DHT22;16702;50.898;4.662;2023-04-03T13:43:52;12.30;99.30
29803;DHT22;16702;50.898;4.662;2023-04-03T13:46:36;12.50;98.00
29803;DHT22;16702;50.898;4.662;2023-04-03T13:49:20;12.50;99.60
29803;DHT22;16702;50.898;4.662;2023-04-03T13:51:52;12.50;99.80
29803;DHT22;16702;50.898;4.662;2023-04-03T13:54:37;12.60;98.60
29803;DHT22;16702;50.898;4.662;2023-04-03T13:57:14;12.70;98.70
29803;DHT22;16702;50.898;4.662;2023-04-03T13:59:44;12.80;98.60
29803;DHT22;16702;50.898;4.662;2023-04-03T14:02:18;12.60;95.80
29803;DHT22;16702;50.898;4.662;2023-04-03T14:04:54;12.70;99.20
29803;DHT22;16702;50.898;4.662;2023-04-03T14:07:28;12.80;98.90
29803;DHT22;16702;50.898;4.662;2023-04-03T14:09:58;12.80;99.90
29803;DHT22;16702;50.898;4.662;2023-04-03T14:12:32;13.00;99.40
29803;DHT22;16702;50.898;4.662;2023-04-03T14:15:10;13.00;98.10
29803;DHT22;16702;50.898;4.662;2023-04-03T14:17:43;12.90;98.70
29803;DHT22;16702;50.898;4.662;2023-04-03T14:20:21;12.90;96.30
29803;DHT22;16702;50.898;4.662;2023-04-03T14:22:52;13.00;97.10
29803;DHT22;16702;50.898;4.662;2023-04-03T14:25:23;13.10;96.80
29803;DHT22;16702;50.898;4.662;2023-04-03T14:27:54;13.10;96.00
29803;DHT22;16702;50.898;4.662;2023-04-03T14:30:27;13.10;95.80
29803;DHT22;16702;50.898;4.662;2023-04-03T14:32:59;13.00;94.80
29803;DHT22;16702;50.898;4.662;2023-04-03T14:35:33;12.90;93.50
29803;DHT22;16702;50.898;4.662;2023-04-03T14:38:09;13.10;97.40
29803;DHT22;16702;50.898;4.662;2023-04-03T14:40:42;13.20;95.50
29803;DHT22;16702;50.898;4.662;2023-04-03T14:43:13;13.10;95.30
29803;DHT22;16702;50.898;4.662;2023-04-03T14:45:44;13.10;93.90
29803;DHT22;16702;50.898;4.662;2023-04-03T14:48:18;13.10;94.60
29803;DHT22;16702;50.898;4.662;2023-04-03T14:50:52;13.10;94.50
29803;DHT22;16702;50.898;4.662;2023-04-03T14:53:32;13.40;95.70
29803;DHT22;16702;50.898;4.662;2023-04-03T14:56:11;13.40;95.30
29803;DHT22;16702;50.898;4.662;2023-04-03T14:58:41;13.50;95.80
29803;DHT22;16702;50.898;4.662;2023-04-03T15:01:12;13.30;93.90
29803;DHT22;16702;50.898;4.662;2023-04-03T15:03:42;13.20;93.90
29803;DHT22;16702;50.898;4.662;2023-04-03T15:06:16;13.50;93.90
29803;DHT22;16702;50.898;4.662;2023-04-03T15:08:47;13.50;95.30
29803;DHT22;16702;50.898;4.662;2023-04-03T15:11:18;13.50;95.40
29803;DHT22;16702;50.898;4.662;2023-04-03T15:13:48;13.60;95.90
29803;DHT22;16702;50.898;4.662;2023-04-03T15:16:19;13.40;94.20
29803;DHT22;16702;50.898;4.662;2023-04-03T15:18:50;13.40;94.60
29803;DHT22;16702;50.898;4.662;2023-04-03T15:21:24;13.20;97.90
29803;DHT22;16702;50.898;4.662;2023-04-03T15:23:54;13.50;96.40
29803;DHT22;16702;50.898;4.662;2023-04-03T15:26:27;13.40;96.10
29803;DHT22;16702;50.898;4.662;2023-04-03T15:28:57;13.30;96.00
29803;DHT22;16702;50.898;4.662;2023-04-03T15:31:28;13.40;95.30
29803;DHT22;16702;50.898;4.662;2023-04-03T15:33:59;13.50;93.90
29803;DHT22;16702;50.898;4.662;2023-04-03T15:36:32;13.40;94.00
29803;DHT22;16702;50.898;4.662;2023-04-03T15:39:03;13.30;96.30
29803;DHT22;16702;50.898;4.662;2023-04-03T15:41:33;13.50;97.40
29803;DHT22;16702;50.898;4.662;2023-04-03T15:44:04;13.60;96.90
29803;DHT22;16702;50.898;4.662;2023-04-03T15:46:34;13.70;97.40
29803;DHT22;16702;50.898;4.662;2023-04-03T15:49:05;13.50;95.40
29803;DHT22;16702;50.898;4.662;2023-04-03T15:51:39;13.60;96.70
29803;DHT22;16702;50.898;4.662;2023-04-03T15:54:09;13.60;96.30
29803;DHT22;16702;50.898;4.662;2023-04-03T15:56:39;13.70;98.20
29803;DHT22;16702;50.898;4.662;2023-04-03T15:59:10;13.80;97.80
29803;DHT22;16702;50.898;4.662;2023-04-03T16:01:40;13.90;96.00
29803;DHT22;16702;50.898;4.662;2023-04-03T16:04:11;13.70;96.40
29803;DHT22;16702;50.898;4.662;2023-04-03T16:06:46;13.60;94.90
29803;DHT22;16702;50.898;4.662;2023-04-03T16:09:16;13.70;96.80
29803;DHT22;16702;50.898;4.662;2023-04-03T16:11:47;13.80;95.50
29803;DHT22;16702;50.898;4.662;2023-04-03T16:14:17;13.70;95.20
29803;DHT22;16702;50.898;4.662;2023-04-03T16:16:48;13.50;95.50
29803;DHT22;16702;50.898;4.662;2023-04-03T16:19:18;13.70;95.90
29803;DHT22;16702;50.898;4.662;2023-04-03T16:21:54;13.90;96.70
29803;DHT22;16702;50.898;4.662;2023-04-03T16:24:25;13.90;96.50
29803;DHT22;16702;50.898;4.662;2023-04-03T16:26:55;14.00;97.10
29803;DHT22;16702;50.898;4.662;2023-04-03T16:29:26;13.70;95.20
29803;DHT22;16702;50.898;4.662;2023-04-03T16:31:57;13.70;95.80
29803;DHT22;16702;50.898;4.662;2023-04-03T16:34:28;13.90;96.00
29803;DHT22;16702;50.898;4.662;2023-04-03T16:37:02;14.10;96.10
29803;DHT22;16702;50.898;4.662;2023-04-03T16:39:33;14.10;96.90
29803;DHT22;16702;50.898;4.662;2023-04-03T16:42:03;14.20;95.80
29803;DHT22;16702;50.898;4.662;2023-04-03T16:44:36;14.30;97.20
29803;DHT22;16702;50.898;4.662;2023-04-03T16:47:07;14.30;96.30
29803;DHT22;16702;50.898;4.662;2023-04-03T16:49:40;14.30;95.40